Time;durP1;ratioP1;P1;durP2;ratioP2;P2;SDS_P1;SDS_P2;PMS_P1;PMS_P2;Temp;Humidity;BMP_temperature;BMP_pressure;BME280_temperature;BME280_humidity;BME280_pressure;Samples;Min_cycle;Max_cycle;Signal;HPM_P1;HPM_P2
2023/12/10 00:00:37;;;;;;;12.73;3.00;;;8.90;92.20;;;9.45;68.73;96433.97;5031440;28;20035;-52
2023/12/10 00:03:05;;;;;;;9.83;4.43;;;8.90;93.50;;;9.70;67.52;96441.66;5031528;28;20048;-50
2023/12/10 00:05:32;;;;;;;12.53;2.87;;;8.90;92.60;;;9.72;67.22;96484.81;5031283;28;20037;-52
2023/12/10 00:08:00;;;;;;;18.13;4.63;;;9.10;90.20;;;9.58;67.59;96457.25;5031343;28;20428;-51
2023/12/10 00:10:27;;;;;;;15.00;3.80;;;9.00;90.20;;;9.78;66.62;96463.63;5031145;28;20045;-51
2023/12/10 00:12:55;;;;;;;8.63;2.47;;;9.10;90.30;;;9.88;65.86;96466.00;5030789;28;20045;-54
2023/12/10 00:15:23;;;;;;;15.30;4.53;;;9.20;88.50;;;9.65;66.20;96472.25;5029854;28;20033;-54
2023/12/10 00:17:50;;;;;;;14.83;5.53;;;9.00;88.60;;;9.81;65.96;96503.13;5031065;28;20386;-54
2023/12/10 00:20:18;;;;;;;9.20;3.03;;;9.20;87.70;;;9.84;66.05;96496.63;5022988;28;20041;-54
2023/12/10 00:22:46;;;;;;;14.37;3.13;;;9.20;88.40;;;9.69;65.60;96511.75;5030941;28;20041;-52
2023/12/10 00:25:14;;;;;;;11.50;2.70;;;9.00;87.00;;;9.65;65.49;96476.72;5030899;28;20045;-54
2023/12/10 00:27:42;;;;;;;17.07;4.93;;;9.10;86.80;;;9.75;65.92;96493.25;5030681;28;20502;-54
2023/12/10 00:30:10;;;;;;;13.77;3.83;;;9.10;87.90;;;9.70;65.75;96500.94;5029522;28;20053;-52
2023/12/10 00:32:38;;;;;;;15.97;3.63;;;9.00;87.40;;;9.75;65.26;96497.72;5030749;28;20052;-54
2023/12/10 00:35:06;;;;;;;10.37;3.37;;;9.00;87.10;;;9.65;65.02;96501.50;5030676;28;20053;-53
2023/12/10 00:37:34;;;;;;;12.37;3.67;;;9.00;85.70;;;9.75;64.58;96519.81;5030658;28;20037;-55
2023/12/10 00:40:05;;;;;;;19.00;4.57;;;9.10;85.20;;;9.77;64.76;96509.84;5031113;28;20041;-52
2023/12/10 00:42:33;;;;;;;16.33;3.90;;;9.10;85.80;;;9.73;64.30;96515.69;5029882;28;20535;-54
2023/12/10 00:45:01;;;;;;;18.70;4.87;;;9.00;84.80;;;9.89;64.52;96518.16;5030996;28;20162;-53
2023/12/10 00:47:29;;;;;;;19.47;5.67;;;9.10;85.80;;;9.97;63.50;96534.00;5030369;28;20041;-53
2023/12/10 00:49:56;;;;;;;20.93;6.00;;;9.20;84.40;;;9.78;63.48;96553.19;5030626;28;20056;-54
2023/12/10 00:52:24;;;;;;;15.13;3.83;;;9.10;83.50;;;9.78;63.98;96521.28;5030849;28;20041;-54
2023/12/10 00:54:52;;;;;;;19.10;4.90;;;9.10;83.40;;;9.87;63.35;96533.47;5030670;28;20413;-53
2023/12/10 00:57:20;;;;;;;18.77;4.60;;;9.10;84.10;;;9.72;63.74;96530.81;5034478;28;20041;-54
2023/12/10 00:59:48;;;;;;;18.67;5.13;;;9.10;84.10;;;9.69;64.04;96557.72;5033370;28;20041;-51
2023/12/10 01:02:15;;;;;;;12.70;3.80;;;9.10;83.30;;;9.75;63.79;96583.63;5033490;28;20053;-54
2023/12/10 01:04:43;;;;;;;17.30;4.30;;;9.10;83.00;;;9.61;63.84;96555.16;5034861;28;20042;-54
2023/12/10 01:07:11;;;;;;;16.63;4.03;;;9.00;83.80;;;9.74;63.61;96560.69;5034511;28;20046;-52
2023/12/10 01:09:38;;;;;;;12.03;3.57;;;9.00;84.10;;;9.51;64.10;96573.22;5034679;28;20413;-51
2023/12/10 01:12:07;;;;;;;16.57;4.03;;;8.90;84.00;;;9.52;63.81;96577.50;5032141;28;20049;-53
2023/12/10 01:14:36;;;;;;;11.73;3.77;;;8.90;83.70;;;9.41;64.53;96582.25;5033428;28;20048;-55
2023/12/10 01:17:03;;;;;;;15.40;4.00;;;8.80;84.30;;;9.52;63.71;96617.34;5032403;28;20045;-52
2023/12/10 01:19:31;;;;;;;17.23;4.07;;;8.90;83.60;;;9.42;63.60;96615.81;5033445;28;20412;-51
2023/12/10 01:21:59;;;;;;;17.13;4.50;;;8.90;83.10;;;9.53;63.43;96600.44;5034516;28;20045;-53
2023/12/10 01:24:30;;;;;;;12.73;3.20;;;8.90;83.00;;;9.60;62.98;96622.63;5034545;28;20088;-54
2023/12/10 01:26:58;;;;;;;20.17;5.87;;;8.90;83.10;;;9.55;63.40;96611.69;5033781;28;20049;-54
2023/12/10 01:29:26;;;;;;;18.20;5.33;;;8.90;82.60;;;9.49;62.43;96628.38;5034329;28;20046;-54
2023/12/10 01:31:53;;;;;;;12.23;5.00;;;9.00;80.70;;;9.71;62.56;96653.25;5032750;28;20068;-54
2023/12/10 01:34:21;;;;;;;15.93;4.23;;;9.00;81.40;;;9.69;62.46;96649.94;5026057;28;20037;-51
2023/12/10 01:36:50;;;;;;;17.30;4.33;;;8.90;81.70;;;9.83;61.68;96670.44;5032566;28;20041;-53
2023/12/10 01:39:17;;;;;;;16.83;5.20;;;9.10;80.30;;;9.82;61.74;96666.09;5034054;28;20042;-52
2023/12/10 01:41:45;;;;;;;18.07;3.90;;;9.10;80.30;;;9.81;61.76;96683.88;5032752;28;20045;-51
2023/12/10 01:44:13;;;;;;;13.27;4.67;;;9.00;80.00;;;9.88;61.18;96677.84;5033332;28;20493;-51
2023/12/10 01:46:40;;;;;;;18.93;4.10;;;9.10;79.80;;;9.95;61.08;96676.94;5033558;28;20033;-54
2023/12/10 01:49:10;;;;;;;12.77;4.20;;;9.10;79.50;;;9.96;60.37;96691.88;5033911;28;20053;-52
2023/12/10 01:51:38;;;;;;;22.90;4.60;;;9.10;78.10;;;10.09;60.07;96691.28;5032716;28;20038;-54
2023/12/10 01:54:06;;;;;;;12.47;4.27;;;9.10;79.00;;;10.08;59.52;96705.59;5032223;28;20424;-52
2023/12/10 01:56:34;;;;;;;15.87;5.33;;;9.10;76.50;;;10.03;59.30;96711.44;5033561;28;20382;-53
2023/12/10 01:59:02;;;;;;;20.53;5.07;;;9.10;77.10;;;9.94;59.44;96709.03;5032520;28;20525;-52
2023/12/10 02:01:31;;;;;;;14.20;4.17;;;9.10;76.40;;;9.92;59.38;96717.19;5033384;28;20042;-54
2023/12/10 02:03:59;;;;;;;24.20;4.93;;;9.10;75.70;;;10.09;59.88;96730.34;5032362;28;20040;-53
2023/12/10 02:06:27;;;;;;;15.37;5.07;;;9.10;77.70;;;10.02;59.86;96724.91;5031774;28;20045;-52
2023/12/10 02:08:54;;;;;;;17.40;4.43;;;9.10;78.20;;;10.15;59.64;96743.72;5033197;28;20094;-52
2023/12/10 02:11:23;;;;;;;24.03;5.10;;;9.20;77.40;;;10.29;59.66;96746.59;5025319;28;20420;-53
2023/12/10 02:13:50;;;;;;;13.60;4.03;;;9.30;78.30;;;10.37;60.00;96755.38;5016011;28;20053;-51
2023/12/10 02:16:18;;;;;;;17.90;4.53;;;9.30;78.80;;;10.39;59.91;96768.47;5033143;28;20511;-52
2023/12/10 02:18:46;;;;;;;16.17;3.67;;;9.30;78.90;;;10.31;59.71;96776.53;5033500;28;20041;-52
2023/12/10 02:21:13;;;;;;;10.57;3.37;;;9.30;78.80;;;10.27;60.78;96784.03;5033136;28;20042;-55
2023/12/10 02:23:54;;;;;;;10.87;3.30;;;9.20;81.20;;;10.38;60.52;96788.94;5031990;28;20052;-55
2023/12/10 02:26:21;;;;;;;14.00;3.93;;;9.10;82.70;;;10.34;60.87;96790.31;5031814;28;20038;-55
2023/12/10 02:28:49;;;;;;;14.87;3.90;;;9.10;83.00;;;10.30;61.57;96794.34;5033145;28;20037;-54
2023/12/10 02:31:19;;;;;;;15.47;4.10;;;9.00;85.10;;;10.23;61.51;96794.19;5033171;28;20045;-54
2023/12/10 02:33:46;;;;;;;10.23;3.40;;;9.00;84.30;;;10.08;61.76;96806.66;5031915;28;20045;-56
2023/12/10 02:36:14;;;;;;;14.67;3.30;;;8.90;84.10;;;10.02;62.35;96816.16;5032786;28;20045;-55
2023/12/10 02:38:44;;;;;;;16.97;5.20;;;8.80;85.70;;;9.96;62.69;96826.66;5033211;28;20049;-54
2023/12/10 02:41:11;;;;;;;9.43;2.77;;;8.60;88.40;;;9.66;64.22;96853.13;5032767;28;20049;-56
2023/12/10 02:43:39;;;;;;;8.30;2.47;;;8.40;91.90;;;9.08;65.57;96881.75;5032804;28;20068;-57
2023/12/10 02:46:07;;;;;;;8.93;2.40;;;7.90;92.60;;;9.02;65.28;96845.25;5031114;28;20620;-57
2023/12/10 02:48:34;;;;;;;8.40;2.33;;;7.70;94.30;;;8.67;65.97;96837.53;5032586;28;20041;-55
2023/12/10 02:51:02;;;;;;;6.00;2.33;;;7.60;93.40;;;8.63;66.09;96849.50;5032529;28;20046;-53
2023/12/10 02:53:30;;;;;;;10.80;2.53;;;7.60;94.90;;;8.56;66.42;96847.69;5032488;28;20041;-53
2023/12/10 02:55:57;;;;;;;8.53;2.33;;;7.40;96.70;;;8.57;66.81;96844.00;5032233;28;20041;-54
2023/12/10 02:58:25;;;;;;;8.23;2.10;;;7.40;98.70;;;8.66;66.51;96841.16;5024602;28;20041;-55
2023/12/10 03:00:54;;;;;;;10.77;3.50;;;7.40;99.00;;;8.70;67.15;96851.47;5026169;28;20049;-55
2023/12/10 03:03:22;;;;;;;9.03;3.17;;;7.50;99.10;;;8.59;67.13;96842.03;5026149;28;20037;-52
2023/12/10 03:05:49;;;;;;;13.40;2.33;;;7.50;97.90;;;8.64;66.74;96855.63;5032133;28;20516;-55
2023/12/10 03:08:17;;;;;;;11.00;3.63;;;7.50;96.80;;;8.72;66.29;96860.91;5032452;28;20045;-54
2023/12/10 03:10:45;;;;;;;47.67;3.80;;;7.60;96.10;;;8.71;66.21;96859.25;5032386;28;20048;-53
2023/12/10 03:13:12;;;;;;;14.80;3.80;;;7.50;96.50;;;8.77;66.36;96857.75;5032223;28;20061;-54
2023/12/10 03:15:40;;;;;;;13.53;3.20;;;7.50;96.40;;;8.81;66.11;96864.38;5031985;28;20511;-57
2023/12/10 03:18:08;;;;;;;14.30;4.73;;;7.60;96.20;;;8.80;65.95;96860.06;5029954;28;20048;-54
2023/12/10 03:20:36;;;;;;;8.43;2.83;;;7.60;94.80;;;8.80;65.85;96860.06;5032231;28;20049;-55
2023/12/10 03:23:03;;;;;;;18.87;3.00;;;7.60;94.30;;;8.82;65.73;96858.06;5031974;28;20052;-53
2023/12/10 03:25:31;;;;;;;11.63;3.97;;;7.60;93.00;;;8.88;65.63;96868.03;5031802;28;20725;-56
2023/12/10 03:27:58;;;;;;;15.23;3.17;;;7.70;92.10;;;8.84;65.63;96861.38;5031904;28;20492;-55
2023/12/10 03:30:26;;;;;;;9.70;3.67;;;7.80;91.20;;;8.79;65.52;96848.63;5031966;28;20041;-56
2023/12/10 03:32:54;;;;;;;8.27;2.90;;;7.70;91.20;;;8.85;65.08;96878.97;5031802;28;20041;-55
2023/12/10 03:35:22;;;;;;;12.57;2.90;;;7.80;89.40;;;8.91;65.15;96864.19;5031258;28;20428;-55
2023/12/10 03:37:49;;;;;;;11.53;2.83;;;7.80;88.80;;;8.97;64.77;96871.47;5030453;28;20045;-54
2023/12/10 03:40:17;;;;;;;13.73;4.10;;;7.90;88.50;;;8.94;64.98;96885.94;5030348;28;20059;-55
2023/12/10 03:42:45;;;;;;;12.43;2.50;;;7.90;88.40;;;8.87;64.72;96882.28;5031777;28;20397;-53
2023/12/10 03:45:12;;;;;;;9.67;3.07;;;7.80;86.80;;;9.04;63.97;96875.13;5031398;28;20048;-56
2023/12/10 03:47:46;;;;;;;7.47;2.40;;;8.00;86.90;;;9.09;63.78;96885.22;5031399;28;20045;-55
2023/12/10 03:50:16;;;;;;;8.02;2.85;;;8.00;85.70;;;9.07;63.38;96877.41;5031506;28;20090;-55
2023/12/10 03:52:43;;;;;;;11.13;3.47;;;8.00;84.30;;;9.02;62.13;96885.09;5031690;28;20064;-53
2023/12/10 03:55:11;;;;;;;10.97;3.13;;;8.00;81.20;;;9.13;62.81;96883.88;5031403;28;20397;-56
2023/12/10 03:57:38;;;;;;;8.83;2.70;;;8.10;83.30;;;9.14;62.78;96875.75;5031050;28;20048;-54
2023/12/10 04:00:07;;;;;;;12.63;3.63;;;8.10;82.50;;;9.20;62.45;96887.50;5031373;28;20052;-56
2023/12/10 04:02:40;;;;;;;13.13;3.13;;;8.10;82.20;;;9.27;61.88;96893.81;5031516;28;20041;-55
2023/12/10 04:05:11;;;;;;;8.43;2.40;;;8.20;81.80;;;9.33;61.33;96905.56;5030900;28;20045;-54
2023/12/10 04:07:40;;;;;;;10.77;3.73;;;8.20;80.00;;;9.35;61.29;96891.13;5030983;28;20041;-52
2023/12/10 04:10:08;;;;;;;11.33;3.40;;;8.30;81.00;;;9.43;61.29;96898.22;5031150;28;20052;-55
2023/12/10 04:12:36;;;;;;;11.53;2.80;;;8.20;81.20;;;9.30;61.27;96896.09;5029941;28;20037;-56
2023/12/10 04:15:05;;;;;;;11.83;2.87;;;8.20;81.60;;;9.33;61.25;96898.44;5029816;28;20061;-53
2023/12/10 04:17:33;;;;;;;10.67;3.33;;;8.20;80.80;;;9.36;60.45;96934.44;5029574;28;20064;-53
2023/12/10 04:20:00;;;;;;;5.60;2.27;;;8.20;79.80;;;9.29;60.60;96894.47;5031044;28;20044;-55
2023/12/10 04:22:28;;;;;;;16.63;4.50;;;8.20;79.30;;;9.33;60.27;96903.75;5022496;28;20420;-54
2023/12/10 04:24:56;;;;;;;14.37;2.70;;;8.30;79.40;;;9.26;60.46;96898.25;5029921;28;20052;-54
2023/12/10 04:27:24;;;;;;;9.97;3.37;;;8.30;78.20;;;9.27;59.97;96934.47;5030672;28;20528;-55
2023/12/10 04:29:53;;;;;;;9.30;4.20;;;8.30;77.60;;;9.30;59.72;96904.06;5031029;28;20045;-55
2023/12/10 04:32:20;;;;;;;10.20;2.70;;;8.40;78.00;;;9.40;59.20;96910.03;5030776;28;20056;-56
2023/12/10 04:34:48;;;;;;;11.50;3.70;;;8.40;76.60;;;9.32;59.40;96911.88;5030947;28;20071;-54
2023/12/10 04:37:16;;;;;;;14.37;3.20;;;8.40;75.80;;;9.41;59.41;96908.19;5030668;28;20350;-54
2023/12/10 04:39:45;;;;;;;6.30;2.57;;;8.40;77.60;;;9.50;59.03;96928.44;5031079;28;20041;-54
2023/12/10 04:42:12;;;;;;;6.43;3.63;;;8.50;76.80;;;9.33;59.18;96914.38;5030688;28;20380;-54
2023/12/10 04:44:40;;;;;;;15.53;2.50;;;8.40;76.00;;;9.47;58.10;96896.88;5030608;28;20045;-51
2023/12/10 04:47:08;;;;;;;9.67;3.03;;;8.50;75.10;;;9.40;58.29;96928.63;5030465;28;20045;-54
2023/12/10 04:49:35;;;;;;;10.53;2.63;;;8.50;74.90;;;9.30;57.97;96904.06;5031216;28;20037;-55
2023/12/10 04:52:05;;;;;;;12.10;2.73;;;8.50;73.90;;;9.36;58.07;96921.16;5031192;28;20049;-53
2023/12/10 04:54:33;;;;;;;11.33;2.63;;;8.50;74.10;;;9.37;58.15;96941.41;5023735;28;20045;-55
2023/12/10 04:57:01;;;;;;;12.03;4.20;;;8.40;74.20;;;9.32;57.90;96939.25;5030744;28;20045;-55
2023/12/10 04:59:28;;;;;;;8.77;2.90;;;8.40;74.40;;;9.36;57.61;96921.97;5021774;28;20045;-53
2023/12/10 05:01:56;;;;;;;8.90;3.00;;;8.40;73.20;;;9.44;56.86;96919.31;5030640;28;20041;-53
2023/12/10 05:04:23;;;;;;;12.50;4.67;;;8.40;73.00;;;9.50;57.10;96931.09;5030552;28;20509;-54
2023/12/10 05:06:51;;;;;;;14.37;2.73;;;8.50;73.10;;;9.50;56.69;96924.91;5030716;28;20038;-55
2023/12/10 05:09:18;;;;;;;11.23;2.60;;;8.50;72.50;;;9.47;56.47;96936.72;5030633;28;20052;-53
2023/12/10 05:11:46;;;;;;;13.20;2.57;;;8.40;72.10;;;9.37;56.86;96921.00;5031110;28;20060;-53
2023/12/10 05:14:14;;;;;;;14.27;3.80;;;8.40;72.30;;;9.26;56.63;96931.97;5030200;28;20053;-54
2023/12/10 05:16:41;;;;;;;10.43;2.83;;;8.30;71.90;;;9.36;56.61;96945.06;5029362;28;20045;-55
2023/12/10 05:19:09;;;;;;;10.67;2.53;;;8.40;71.60;;;9.27;56.35;96965.53;5030430;28;20046;-55
2023/12/10 05:21:37;;;;;;;11.40;5.13;;;8.30;71.40;;;9.25;56.12;96962.22;5030905;28;20049;-55
2023/12/10 05:24:04;;;;;;;10.37;3.30;;;8.30;70.60;;;9.34;55.49;96955.84;5030506;28;20390;-53
2023/12/10 05:26:32;;;;;;;9.23;2.40;;;8.40;70.30;;;9.35;55.17;96943.41;5022268;28;20041;-52
2023/12/10 05:29:00;;;;;;;16.60;4.97;;;8.50;70.00;;;9.37;55.01;96963.50;5030701;28;20057;-54
2023/12/10 05:31:27;;;;;;;12.37;3.07;;;8.40;69.50;;;9.13;55.42;96968.84;5030575;28;20509;-54
2023/12/10 05:33:55;;;;;;;12.77;3.03;;;8.30;69.90;;;9.25;55.35;96968.34;5031071;28;20053;-53
2023/12/10 05:36:22;;;;;;;10.03;2.37;;;8.30;69.50;;;9.37;55.33;96986.59;5030107;28;20056;-51
2023/12/10 05:38:50;;;;;;;5.47;2.03;;;8.30;69.90;;;9.21;54.96;96990.94;5029233;28;20409;-55
2023/12/10 05:41:18;;;;;;;7.00;2.53;;;8.30;69.50;;;9.21;54.99;96982.13;5030977;28;20068;-54
2023/12/10 05:43:46;;;;;;;12.70;2.27;;;8.30;69.60;;;9.29;54.84;96999.88;5033634;28;20041;-54
2023/12/10 05:46:13;;;;;;;7.60;2.37;;;8.20;69.80;;;9.34;55.10;96990.38;5033441;28;20034;-52
2023/12/10 05:48:41;;;;;;;10.63;3.10;;;8.30;69.50;;;9.26;54.76;96995.72;5033975;28;20048;-54
2023/12/10 05:51:09;;;;;;;9.50;2.43;;;8.20;69.50;;;9.14;54.68;96997.91;5032566;28;20045;-53
2023/12/10 05:53:37;;;;;;;9.10;2.60;;;8.20;69.00;;;9.21;54.91;96995.41;5033849;28;20413;-55
2023/12/10 05:56:05;;;;;;;12.80;2.97;;;8.20;69.30;;;9.15;54.28;97012.00;5032372;28;20497;-53
2023/12/10 05:58:33;;;;;;;10.63;2.47;;;8.10;68.40;;;8.94;54.92;97013.34;5025987;28;20045;-54
2023/12/10 06:01:00;;;;;;;6.70;2.40;;;8.10;68.70;;;9.19;54.87;97026.59;5033450;28;20437;-54
2023/12/10 06:03:28;;;;;;;9.20;2.17;;;8.20;68.80;;;9.13;54.94;97036.09;5033719;28;20037;-51
2023/12/10 06:05:56;;;;;;;10.63;2.47;;;8.20;68.70;;;8.98;53.53;97027.94;5033489;28;20053;-54
2023/12/10 06:08:24;;;;;;;13.00;3.23;;;8.20;66.80;;;9.10;54.02;97027.63;5033730;28;20053;-54
2023/12/10 06:10:51;;;;;;;7.60;2.30;;;8.30;67.10;;;9.12;53.63;97047.69;5032504;28;20061;-55
2023/12/10 06:13:19;;;;;;;8.73;2.70;;;8.30;66.60;;;9.23;53.98;97050.00;5032537;28;20077;-55
2023/12/10 06:15:47;;;;;;;9.60;2.37;;;8.50;66.10;;;9.09;53.96;97042.69;5032535;28;21067;-54
2023/12/10 06:18:15;;;;;;;16.67;3.37;;;8.30;66.40;;;9.12;53.33;97042.38;5033758;28;20069;-54
2023/12/10 06:20:42;;;;;;;12.87;2.80;;;8.30;66.20;;;9.18;53.93;97055.00;5033969;28;20048;-54
2023/12/10 06:23:10;;;;;;;11.93;2.67;;;8.20;67.00;;;9.33;53.24;97067.63;5033456;28;20053;-53
2023/12/10 06:25:37;;;;;;;11.10;2.40;;;8.30;66.50;;;9.38;53.16;97067.91;5031826;28;20042;-55
2023/12/10 06:28:05;;;;;;;9.53;2.77;;;8.40;65.80;;;9.36;53.43;97065.44;5033423;28;20053;-54
2023/12/10 06:30:33;;;;;;;13.27;3.07;;;8.30;67.00;;;9.33;53.82;97051.69;5033186;28;20364;-52
2023/12/10 06:33:00;;;;;;;7.50;2.20;;;8.30;67.30;;;9.21;53.68;97081.22;5033837;28;20044;-54
2023/12/10 06:35:28;;;;;;;16.60;3.40;;;8.20;66.90;;;9.26;53.85;97070.09;5032702;28;20049;-54
2023/12/10 06:37:56;;;;;;;9.03;2.30;;;8.20;68.30;;;9.13;53.62;97078.56;5031725;28;20049;-54
2023/12/10 06:40:23;;;;;;;7.87;1.90;;;8.10;67.50;;;9.12;54.21;97089.38;5031738;28;20466;-54
2023/12/10 06:42:51;;;;;;;13.13;3.63;;;8.20;67.70;;;9.01;54.49;97107.25;5032976;28;20397;-54
2023/12/10 06:45:19;;;;;;;8.10;3.13;;;8.20;68.00;;;9.04;54.54;97090.19;5033016;28;20037;-52
2023/12/10 06:47:47;;;;;;;14.77;2.53;;;8.20;68.90;;;9.20;54.25;97086.69;5032724;28;20461;-53
2023/12/10 06:50:15;;;;;;;9.30;3.47;;;8.30;68.50;;;9.13;54.80;97125.53;5032604;28;20056;-50
2023/12/10 06:52:43;;;;;;;7.57;2.13;;;8.20;68.80;;;9.19;54.60;97133.69;5031464;28;20058;-53
2023/12/10 06:55:11;;;;;;;8.53;1.80;;;8.30;69.50;;;9.04;54.84;97125.53;5032845;28;20421;-51
2023/12/10 06:57:38;;;;;;;9.50;2.47;;;8.20;69.50;;;9.08;55.17;97134.00;5032598;28;20038;-53
2023/12/10 07:00:07;;;;;;;11.63;2.40;;;8.10;70.60;;;9.22;55.00;97133.34;5032768;28;20046;-52
2023/12/10 07:02:35;;;;;;;6.73;1.77;;;8.10;70.20;;;9.02;55.15;97142.63;5024500;28;20052;-50
2023/12/10 07:05:03;;;;;;;7.80;2.37;;;8.10;69.70;;;9.17;55.28;97148.94;5032713;28;20497;-53
2023/12/10 07:07:31;;;;;;;10.27;3.13;;;8.10;70.00;;;9.22;54.39;97159.06;5032077;28;20041;-54
2023/12/10 07:09:59;;;;;;;11.90;2.97;;;8.20;69.10;;;9.20;54.96;97169.84;5031345;28;20053;-53
2023/12/10 07:12:27;;;;;;;8.17;1.93;;;8.20;69.40;;;9.26;54.81;97171.84;5032210;28;20045;-53
2023/12/10 07:14:55;;;;;;;9.63;2.30;;;8.30;68.70;;;9.29;54.78;97185.81;5028995;28;20049;-54
2023/12/10 07:17:22;;;;;;;9.83;2.57;;;8.40;68.90;;;9.38;54.84;97190.97;5032489;28;20068;-53
2023/12/10 07:19:50;;;;;;;9.53;2.67;;;8.40;69.00;;;9.48;54.65;97185.50;5032874;28;20050;-55
2023/12/10 07:22:18;;;;;;;8.03;2.77;;;8.40;69.40;;;9.59;54.09;97185.16;5031972;28;20508;-51
2023/12/10 07:24:45;;;;;;;10.43;2.10;;;8.40;69.00;;;9.67;53.97;97197.63;5032043;28;20052;-53
2023/12/10 07:27:13;;;;;;;14.57;3.27;;;8.50;69.00;;;9.56;53.85;97206.75;5030633;28;20056;-53
2023/12/10 07:29:41;;;;;;;14.67;2.80;;;8.50;67.80;;;9.61;53.89;97195.63;5032464;28;20053;-53
2023/12/10 07:32:08;;;;;;;8.37;2.20;;;8.50;68.00;;;9.70;53.60;97201.78;5032267;28;20052;-50
2023/12/10 07:34:36;;;;;;;10.60;2.60;;;8.50;67.80;;;9.78;53.08;97191.16;5023761;28;20049;-54
2023/12/10 07:37:04;;;;;;;10.60;2.60;;;8.60;67.50;;;9.72;53.21;97189.97;5031526;28;20045;-54
2023/12/10 07:39:31;;;;;;;8.07;2.57;;;8.60;67.70;;;9.69;53.56;97202.78;5031677;28;20045;-52
2023/12/10 07:42:01;;;;;;;10.60;2.23;;;8.50;67.60;;;9.78;53.31;97199.94;5031671;28;20045;-53
2023/12/10 07:44:29;;;;;;;11.60;2.40;;;8.60;68.10;;;9.80;53.67;97234.34;5031792;28;20045;-54
2023/12/10 07:46:58;;;;;;;9.33;2.00;;;8.60;67.80;;;9.59;53.70;97205.59;5031331;28;20421;-53
2023/12/10 07:49:25;;;;;;;9.83;3.07;;;8.50;68.40;;;9.66;53.27;97212.75;5019119;28;20414;-53
2023/12/10 07:51:55;;;;;;;19.47;3.17;;;8.60;68.20;;;9.69;53.99;97218.72;5029763;28;20041;-52
2023/12/10 07:54:23;;;;;;;7.07;2.00;;;8.60;68.00;;;9.74;53.93;97217.22;5031072;28;20417;-54
2023/12/10 07:56:50;;;;;;;11.20;3.17;;;8.70;68.70;;;9.80;53.70;97234.34;5030431;28;20045;-50
2023/12/10 07:59:19;;;;;;;12.37;2.13;;;8.60;67.80;;;9.81;53.72;97228.03;5029447;28;20037;-52
2023/12/10 08:01:48;;;;;;;12.00;2.77;;;8.60;67.90;;;9.84;53.39;97215.22;5029313;28;20052;-51
2023/12/10 08:04:16;;;;;;;7.87;2.27;;;8.70;68.50;;;9.91;53.49;97228.69;5030054;28;20049;-49
2023/12/10 08:06:43;;;;;;;14.77;3.90;;;8.70;68.00;;;9.87;53.05;97238.00;5030643;28;20052;-50
2023/12/10 08:09:12;;;;;;;16.80;2.77;;;8.80;67.20;;;9.96;52.96;97241.47;5030782;28;20057;-53
2023/12/10 08:11:39;;;;;;;8.63;2.00;;;8.80;67.30;;;9.97;53.07;97238.66;5022655;28;20041;-50
2023/12/10 08:14:09;;;;;;;7.27;3.00;;;8.80;67.40;;;9.86;53.38;97242.47;5030178;28;20116;-54
2023/12/10 08:16:36;;;;;;;11.20;2.90;;;8.70;67.90;;;9.96;52.84;97239.63;5029556;28;20057;-51
2023/12/10 08:19:05;;;;;;;9.13;2.80;;;8.80;66.20;;;9.99;52.95;97246.47;5030321;28;20045;-54
2023/12/10 08:21:33;;;;;;;6.70;2.30;;;8.80;66.70;;;10.02;52.65;97249.63;5030216;28;20444;-52
2023/12/10 08:24:01;;;;;;;5.30;1.73;;;8.80;67.30;;;9.88;52.13;97254.78;5030463;28;20470;-50
2023/12/10 08:26:28;;;;;;;5.70;1.93;;;8.70;66.10;;;9.98;52.70;97250.13;5029892;28;20185;-50
2023/12/10 08:28:56;;;;;;;5.10;2.60;;;8.70;67.50;;;10.00;51.93;97248.97;5029846;28;20424;-52
2023/12/10 08:31:23;;;;;;;7.50;2.10;;;8.70;66.40;;;10.05;52.23;97245.78;5030429;28;20515;-53
2023/12/10 08:33:51;;;;;;;8.03;2.63;;;8.80;66.20;;;10.08;52.23;97253.47;5030300;28;20049;-51
2023/12/10 08:36:19;;;;;;;9.80;3.17;;;8.80;66.30;;;9.99;52.47;97249.94;5029364;28;20109;-53
2023/12/10 08:38:47;;;;;;;11.10;2.30;;;8.70;66.70;;;10.04;52.27;97255.63;5026995;28;20041;-52
2023/12/10 08:41:14;;;;;;;7.53;1.90;;;8.70;66.20;;;10.04;52.19;97258.28;5023750;28;20046;-52
2023/12/10 08:43:42;;;;;;;6.10;1.70;;;8.80;66.10;;;9.70;51.47;97262.94;5029715;28;20038;-53
2023/12/10 08:46:09;;;;;;;7.20;2.47;;;8.80;64.10;;;9.97;52.23;97264.44;5029488;28;20054;-55
2023/12/10 08:48:37;;;;;;;3.90;1.67;;;8.90;66.30;;;10.10;53.18;97267.41;5029909;28;20045;-50
2023/12/10 08:51:07;;;;;;;12.07;3.40;;;9.00;67.90;;;10.12;53.69;97251.25;5029975;28;20054;-52
2023/12/10 08:53:35;;;;;;;7.00;2.10;;;9.00;69.10;;;10.17;53.86;97268.38;5029571;28;20425;-50
2023/12/10 08:56:03;;;;;;;14.50;2.23;;;9.00;68.70;;;10.18;53.45;97272.72;5029710;28;20044;-50
2023/12/10 08:58:31;;;;;;;6.60;2.23;;;9.00;68.70;;;10.21;53.75;97279.53;5028625;28;20045;-50
2023/12/10 09:01:00;;;;;;;7.13;2.43;;;9.00;69.30;;;10.21;53.98;97285.66;5030114;28;20359;-50
2023/12/10 09:03:27;;;;;;;6.80;2.40;;;9.10;69.40;;;10.30;54.13;97283.88;5029774;28;20046;-51
2023/12/10 09:05:55;;;;;;;4.17;2.30;;;9.10;70.20;;;10.29;54.26;97278.69;5029935;28;20044;-50
2023/12/10 09:08:26;;;;;;;13.13;3.43;;;9.00;70.60;;;10.32;54.07;97297.03;5028697;28;20050;-52
2023/12/10 09:10:54;;;;;;;17.10;3.07;;;9.00;71.10;;;10.29;54.02;97303.47;5029668;28;20053;-49
2023/12/10 09:13:22;;;;;;;11.07;2.30;;;9.00;71.10;;;10.29;54.88;97303.47;5029252;28;20045;-50
2023/12/10 09:15:53;;;;;;;6.33;2.40;;;9.00;71.90;;;10.33;54.68;97328.78;5029779;28;20416;-49
2023/12/10 09:18:21;;;;;;;10.90;2.50;;;9.00;72.00;;;10.37;54.50;97314.16;5033383;28;20053;-49
2023/12/10 09:20:49;;;;;;;3.90;1.63;;;9.00;71.80;;;10.30;54.65;97330.91;5032916;28;20038;-50
2023/12/10 09:23:16;;;;;;;6.60;1.60;;;9.00;71.30;;;10.29;54.47;97330.06;5033681;28;20041;-52
2023/12/10 09:25:44;;;;;;;5.80;2.50;;;9.00;71.80;;;10.24;54.82;97321.78;5033159;28;20041;-52
2023/12/10 09:28:12;;;;;;;8.07;2.77;;;9.10;72.00;;;10.30;55.03;97334.44;5032296;28;20052;-54
2023/12/10 09:30:40;;;;;;;5.40;2.13;;;9.00;72.10;;;10.29;54.89;97327.41;5032444;28;20409;-51
2023/12/10 09:33:08;;;;;;;4.13;1.50;;;9.00;72.80;;;10.35;55.43;97336.56;5034287;28;20049;-50
2023/12/10 09:35:36;;;;;;;4.37;1.80;;;9.00;72.90;;;10.38;55.00;97338.91;5033930;28;20045;-53
2023/12/10 09:38:04;;;;;;;11.63;2.50;;;9.10;73.20;;;10.40;55.49;97340.41;5033886;28;20037;-50
2023/12/10 09:40:32;;;;;;;10.67;2.50;;;9.10;73.20;;;10.42;55.37;97351.72;5033897;28;20049;-51
2023/12/10 09:42:59;;;;;;;7.53;2.00;;;9.10;73.20;;;10.43;55.65;97342.75;5034053;28;20041;-53
2023/12/10 09:45:28;;;;;;;8.77;2.17;;;9.10;74.00;;;10.36;55.41;97352.38;5034049;28;20050;-52
2023/12/10 09:47:56;;;;;;;10.20;2.10;;;9.00;73.90;;;10.39;55.29;97357.38;5033767;28;20045;-50
2023/12/10 09:50:24;;;;;;;11.40;1.87;;;9.00;74.00;;;10.38;55.77;97346.91;5034179;28;20052;-53
2023/12/10 09:52:53;;;;;;;9.57;2.10;;;9.10;73.80;;;10.39;55.46;97351.22;5032777;28;20276;-53
2023/12/10 09:55:21;;;;;;;6.40;2.20;;;9.00;74.10;;;10.40;55.74;97342.25;5033938;28;20417;-51
2023/12/10 09:57:48;;;;;;;5.10;2.60;;;9.00;74.10;;;10.44;55.62;97338.25;5033534;28;20501;-54
2023/12/10 10:00:16;;;;;;;9.53;3.00;;;9.00;73.60;;;10.43;55.08;97337.41;5033583;28;20053;-54
2023/12/10 10:02:44;;;;;;;6.50;2.23;;;9.00;73.60;;;10.45;54.97;97323.94;5033467;28;20501;-52
2023/12/10 10:05:12;;;;;;;5.47;2.80;;;9.00;73.10;;;10.46;55.41;97338.91;5033550;28;20432;-51
2023/12/10 10:07:39;;;;;;;10.00;2.70;;;9.10;73.50;;;10.50;55.09;97339.41;5032948;28;20057;-52
2023/12/10 10:10:11;;;;;;;11.47;2.13;;;9.10;73.10;;;10.53;55.05;97329.25;5033563;28;20053;-50
2023/12/10 10:12:39;;;;;;;8.23;2.60;;;9.20;72.70;;;10.52;54.90;97338.22;5032399;28;20049;-53
2023/12/10 10:15:07;;;;;;;5.90;2.27;;;9.20;72.30;;;10.58;54.92;97339.38;5033874;28;20045;-54
2023/12/10 10:17:36;;;;;;;7.37;2.20;;;9.30;72.70;;;10.59;55.04;97338.41;5033583;28;20054;-51
2023/12/10 10:20:05;;;;;;;12.53;3.17;;;9.30;72.60;;;10.58;54.74;97342.06;5033656;28;20041;-54
2023/12/10 10:22:33;;;;;;;5.70;2.30;;;9.30;72.10;;;10.57;54.90;97337.75;5033109;28;20100;-54
2023/12/10 10:25:00;;;;;;;7.00;2.07;;;9.30;72.50;;;10.57;54.65;97330.56;5033308;28;20465;-52
2023/12/10 10:27:31;;;;;;;10.77;2.63;;;9.30;71.90;;;10.55;55.15;97339.75;5032109;28;20053;-51
2023/12/10 10:30:00;;;;;;;9.10;3.03;;;9.30;71.80;;;10.60;55.20;97326.75;5033285;28;20046;-52